createdAt,value
2018-07-13T00:02:03.939Z,14.10
2018-07-13T00:04:31.587Z,14.00
2018-07-13T00:06:59.168Z,14.00
2018-07-13T00:09:26.785Z,14.00
2018-07-13T00:11:54.370Z,13.90
2018-07-13T00:14:23.276Z,13.80
2018-07-13T00:19:21.040Z,13.80
2018-07-13T00:21:48.585Z,13.80
2018-07-13T00:24:16.157Z,13.80
2018-07-13T00:26:44.027Z,13.70
2018-07-13T00:29:11.904Z,13.60
2018-07-13T00:31:40.684Z,13.60
2018-07-13T00:34:08.272Z,13.60
2018-07-13T00:36:36.089Z,13.50
2018-07-13T00:39:07.199Z,13.40
2018-07-13T00:41:34.758Z,13.40
2018-07-13T00:44:02.358Z,13.40
2018-07-13T00:46:30.153Z,13.40
2018-07-13T00:48:57.731Z,13.30
2018-07-13T00:51:25.324Z,13.30
2018-07-13T00:53:52.916Z,13.30
2018-07-13T00:56:20.432Z,13.30
2018-07-13T00:58:48.216Z,13.30
2018-07-13T01:01:15.715Z,13.20
2018-07-13T01:03:43.555Z,13.10
2018-07-13T01:06:11.072Z,13.00
2018-07-13T01:08:38.561Z,13.00
2018-07-13T01:11:06.029Z,13.00
2018-07-13T01:13:33.646Z,13.00
2018-07-13T01:16:01.136Z,13.00
2018-07-13T01:18:28.640Z,13.00
2018-07-13T01:20:56.615Z,13.00
2018-07-13T01:23:24.108Z,13.00
2018-07-13T01:25:51.573Z,13.00
2018-07-13T01:28:19.120Z,12.90
2018-07-13T01:30:46.614Z,12.80
2018-07-13T01:33:14.097Z,12.70
2018-07-13T01:35:41.788Z,12.70
2018-07-13T01:38:09.247Z,12.60
2018-07-13T01:40:36.756Z,12.50
2018-07-13T01:43:04.399Z,12.50
2018-07-13T01:45:31.897Z,12.50
2018-07-13T01:47:59.456Z,12.40
2018-07-13T01:50:27.006Z,12.40
2018-07-13T01:52:54.548Z,12.40
2018-07-13T01:55:22.069Z,12.40
2018-07-13T01:57:49.762Z,12.40
2018-07-13T02:00:17.267Z,12.30
2018-07-13T02:02:44.978Z,12.30
2018-07-13T02:07:40.183Z,12.30
2018-07-13T02:10:07.816Z,12.30
2018-07-13T02:12:35.320Z,12.30
2018-07-13T02:15:02.876Z,12.30
2018-07-13T02:17:30.384Z,12.20
2018-07-13T02:19:57.917Z,12.10
2018-07-13T02:22:25.398Z,12.00
2018-07-13T02:24:52.915Z,12.00
2018-07-13T02:27:20.425Z,12.10
2018-07-13T02:29:47.952Z,12.00
2018-07-13T02:32:15.480Z,12.00
2018-07-13T02:37:10.448Z,12.00
2018-07-13T02:39:37.976Z,12.00
2018-07-13T02:42:05.444Z,11.90
2018-07-13T02:44:32.972Z,11.90
2018-07-13T02:47:00.751Z,11.90
2018-07-13T02:49:28.289Z,11.80
2018-07-13T02:51:56.006Z,11.80
2018-07-13T02:54:23.557Z,11.80
2018-07-13T02:56:51.112Z,11.80
2018-07-13T02:59:18.724Z,11.70
2018-07-13T03:01:46.273Z,11.70
2018-07-13T03:04:13.930Z,11.70
2018-07-13T03:09:10.753Z,11.70
2018-07-13T03:11:38.548Z,11.60
2018-07-13T03:14:06.776Z,11.60
2018-07-13T03:16:34.533Z,11.60
2018-07-13T03:19:02.170Z,11.60
2018-07-13T03:21:29.672Z,11.60
2018-07-13T03:23:57.285Z,11.50
2018-07-13T03:26:24.997Z,11.60
2018-07-13T03:28:52.844Z,11.60
2018-07-13T03:31:20.371Z,11.50
2018-07-13T03:33:48.200Z,11.40
2018-07-13T03:36:15.716Z,11.40
2018-07-13T03:38:43.574Z,11.40
2018-07-13T03:41:11.372Z,11.40
2018-07-13T03:43:38.896Z,11.40
2018-07-13T03:46:06.665Z,11.30
2018-07-13T03:48:41.506Z,11.40
2018-07-13T03:51:09.255Z,11.40
2018-07-13T03:53:36.842Z,11.30
2018-07-13T03:56:04.792Z,11.30
2018-07-13T03:58:32.506Z,11.20
2018-07-13T04:03:27.609Z,11.20
2018-07-13T04:05:55.133Z,11.20
2018-07-13T04:08:22.977Z,11.20
2018-07-13T04:10:50.493Z,11.30
2018-07-13T04:13:18.019Z,11.30
2018-07-13T04:15:45.800Z,11.40
2018-07-13T04:18:17.823Z,11.40
2018-07-13T04:20:45.637Z,11.40
2018-07-13T04:23:13.177Z,11.40
2018-07-13T04:25:40.696Z,11.30
2018-07-13T04:28:08.517Z,11.40
2018-07-13T04:30:36.084Z,11.50
2018-07-13T04:33:03.606Z,11.50
2018-07-13T04:35:31.144Z,11.60
2018-07-13T04:37:58.662Z,11.60
2018-07-13T04:40:26.145Z,11.70
2018-07-13T04:42:53.689Z,11.70
2018-07-13T04:47:48.656Z,11.80
2018-07-13T04:50:16.295Z,11.80
2018-07-13T04:52:43.797Z,11.90
2018-07-13T04:55:11.324Z,11.90
2018-07-13T04:57:39.138Z,12.00
2018-07-13T05:00:06.663Z,12.00
2018-07-13T05:02:34.457Z,12.10
2018-07-13T05:05:02.030Z,12.10
2018-07-13T05:12:24.748Z,12.30
2018-07-13T05:14:52.385Z,12.40
2018-07-13T05:17:20.338Z,12.40
2018-07-13T05:22:15.288Z,12.60
2018-07-13T05:24:42.832Z,12.70
2018-07-13T05:27:10.364Z,12.80
2018-07-13T05:29:37.853Z,13.00
2018-07-13T05:32:05.433Z,13.00
2018-07-13T05:34:33.345Z,13.10
2018-07-13T05:37:01.034Z,13.20
2018-07-13T05:39:28.581Z,13.20
2018-07-13T05:41:56.101Z,13.30
2018-07-13T05:44:23.654Z,13.40
2018-07-13T05:46:51.177Z,13.50
2018-07-13T05:49:18.733Z,13.60
2018-07-13T05:51:46.281Z,13.70
2018-07-13T05:54:14.261Z,13.80
2018-07-13T05:56:41.781Z,13.90
2018-07-13T06:01:36.814Z,14.10
2018-07-13T06:04:04.485Z,14.20
2018-07-13T06:06:31.994Z,14.30
2018-07-13T06:08:59.506Z,14.40
2018-07-13T06:11:27.053Z,14.50
2018-07-13T06:13:54.542Z,14.50
2018-07-13T06:16:22.657Z,14.60
2018-07-13T06:18:50.431Z,14.60
2018-07-13T06:21:17.952Z,14.70
2018-07-13T06:23:45.652Z,14.80
2018-07-13T06:26:13.159Z,14.90
2018-07-13T06:28:40.634Z,15.10
2018-07-13T06:31:08.268Z,15.20
2018-07-13T06:33:35.762Z,15.40
2018-07-13T06:36:03.640Z,15.50
2018-07-13T06:38:31.200Z,15.50
2018-07-13T06:43:26.237Z,15.60
2018-07-13T06:45:53.742Z,15.70
2018-07-13T06:48:21.472Z,15.90
2018-07-13T06:50:49.017Z,16.10
2018-07-13T06:53:16.728Z,16.20
2018-07-13T06:55:44.774Z,16.30
2018-07-13T06:58:23.864Z,16.40
2018-07-13T07:00:57.320Z,16.50
2018-07-13T07:03:25.567Z,16.50
2018-07-13T07:05:54.837Z,16.60
2018-07-13T07:08:22.365Z,16.70
2018-07-13T07:10:49.876Z,16.80
2018-07-13T07:13:23.411Z,16.80
2018-07-13T07:15:50.984Z,16.90
2018-07-13T07:18:18.517Z,16.90
2018-07-13T07:20:46.196Z,17.00
2018-07-13T07:23:13.901Z,17.10
2018-07-13T07:25:41.417Z,17.10
2018-07-13T07:28:09.173Z,17.30
2018-07-13T07:30:43.341Z,17.50
2018-07-13T07:33:10.840Z,17.70
2018-07-13T07:35:38.337Z,17.90
2018-07-13T07:38:05.817Z,17.90
2018-07-13T07:40:33.345Z,17.80
2018-07-13T07:45:28.322Z,17.90
2018-07-13T07:47:55.864Z,18.00
2018-07-13T07:50:23.388Z,18.20
2018-07-13T07:52:51.153Z,18.30
2018-07-13T07:55:18.876Z,18.60
2018-07-13T07:57:46.403Z,18.60
2018-07-13T08:00:13.936Z,18.80
2018-07-13T08:02:41.526Z,18.80
2018-07-13T08:05:09.015Z,18.90
2018-07-13T08:07:36.616Z,19.00
2018-07-13T08:10:04.453Z,19.30
2018-07-13T08:12:31.953Z,19.40
2018-07-13T08:14:59.464Z,19.60
2018-07-13T08:17:27.313Z,19.60
2018-07-13T08:19:55.167Z,19.80
2018-07-13T08:22:40.879Z,19.80
2018-07-13T08:25:11.180Z,19.90
2018-07-13T08:27:43.041Z,20.00
2018-07-13T08:30:14.751Z,20.10
2018-07-13T08:32:42.309Z,20.30
2018-07-13T08:35:10.046Z,20.40
2018-07-13T08:37:37.551Z,20.60
2018-07-13T08:40:05.336Z,20.80
2018-07-13T08:42:32.865Z,20.90
2018-07-13T08:45:00.358Z,21.00
2018-07-13T08:47:27.936Z,21.00
2018-07-13T08:49:55.453Z,21.10
2018-07-13T08:52:22.997Z,21.20
2018-07-13T08:54:50.713Z,21.30
2018-07-13T08:57:18.223Z,21.50
2018-07-13T08:59:45.789Z,21.60
2018-07-13T09:02:13.361Z,21.80
2018-07-13T09:04:40.852Z,22.00
2018-07-13T09:09:36.047Z,22.30
2018-07-13T09:12:03.653Z,22.30
2018-07-13T09:14:31.156Z,22.40
2018-07-13T09:16:58.875Z,22.50
2018-07-13T09:19:26.416Z,22.60
2018-07-13T09:24:21.365Z,22.80
2018-07-13T09:26:49.183Z,23.00
2018-07-13T09:29:16.701Z,23.10
2018-07-13T09:31:44.265Z,23.30
2018-07-13T09:34:11.768Z,23.40
2018-07-13T09:36:39.275Z,23.60
2018-07-13T09:39:07.531Z,23.80
2018-07-13T09:41:35.067Z,24.00
2018-07-13T09:44:02.603Z,24.10
2018-07-13T09:48:57.964Z,24.40
2018-07-13T09:51:25.461Z,24.50
2018-07-13T09:53:53.324Z,24.60
2018-07-13T09:56:20.796Z,24.70
2018-07-13T09:58:48.490Z,24.70
2018-07-13T10:01:20.669Z,24.80
2018-07-13T10:03:48.528Z,24.90
2018-07-13T10:06:16.081Z,25.10
2018-07-13T10:08:43.597Z,25.30
2018-07-13T10:11:11.111Z,25.40
2018-07-13T10:13:38.704Z,25.60
2018-07-13T10:16:06.261Z,25.70
2018-07-13T10:18:33.761Z,25.80
2018-07-13T10:21:02.051Z,25.80
2018-07-13T10:23:30.368Z,25.80
2018-07-13T10:26:04.241Z,25.90
2018-07-13T10:28:31.964Z,26.10
2018-07-13T10:30:59.536Z,26.30
2018-07-13T10:33:27.064Z,26.30
2018-07-13T10:35:54.609Z,26.50
2018-07-13T10:38:22.452Z,26.70
2018-07-13T10:40:49.929Z,26.90
2018-07-13T10:43:17.413Z,26.90
2018-07-13T10:45:45.010Z,27.00
2018-07-13T10:48:12.489Z,27.00
2018-07-13T10:50:39.969Z,27.10
2018-07-13T10:53:07.508Z,27.10
2018-07-13T10:55:35.157Z,27.30
2018-07-13T10:58:02.645Z,27.50
2018-07-13T11:00:30.242Z,27.50
2018-07-13T11:02:57.878Z,27.30
2018-07-13T11:05:25.366Z,27.00
2018-07-13T11:07:53.162Z,27.00
2018-07-13T11:10:20.648Z,27.30
2018-07-13T11:12:48.144Z,27.60
2018-07-13T11:15:15.776Z,27.70
2018-07-13T11:17:43.288Z,27.80
2018-07-13T11:20:10.782Z,27.80
2018-07-13T11:22:38.297Z,27.90
2018-07-13T11:25:05.800Z,28.10
2018-07-13T11:27:33.314Z,27.90
2018-07-13T11:30:00.848Z,27.90
2018-07-13T11:34:55.840Z,27.70
2018-07-13T11:37:23.676Z,27.90
2018-07-13T11:39:51.076Z,28.10
2018-07-13T11:42:18.597Z,28.10
2018-07-13T11:44:46.091Z,28.10
2018-07-13T11:47:13.948Z,28.20
2018-07-13T11:49:41.469Z,28.20
2018-07-13T11:52:09.021Z,28.20
2018-07-13T11:54:36.528Z,28.30
2018-07-13T11:57:04.068Z,28.70
2018-07-13T11:59:31.614Z,28.40
2018-07-13T12:01:59.130Z,28.50
2018-07-13T12:04:26.681Z,28.60
2018-07-13T12:06:54.292Z,28.60
2018-07-13T12:09:21.813Z,28.50
2018-07-13T12:11:49.482Z,28.40
2018-07-13T12:14:17.003Z,28.40
2018-07-13T12:16:44.589Z,28.30
2018-07-13T12:19:12.219Z,28.30
2018-07-13T12:21:39.811Z,28.50
2018-07-13T12:24:07.299Z,28.50
2018-07-13T12:26:34.854Z,28.50
2018-07-13T12:29:02.628Z,28.50
2018-07-13T12:31:31.041Z,28.60
2018-07-13T12:36:26.325Z,28.80
2018-07-13T12:38:53.825Z,28.90
2018-07-13T12:41:21.318Z,29.10
2018-07-13T12:43:49.224Z,29.00
2018-07-13T12:46:23.463Z,29.00
2018-07-13T12:51:18.442Z,28.90
2018-07-13T12:53:45.971Z,28.90
2018-07-13T12:56:13.517Z,28.90
2018-07-13T12:58:41.000Z,28.90
2018-07-13T13:01:08.476Z,29.10
2018-07-13T13:03:36.134Z,29.10
2018-07-13T13:06:03.860Z,29.00
2018-07-13T13:08:31.823Z,29.10
2018-07-13T13:10:59.631Z,29.10
2018-07-13T13:13:27.151Z,29.20
2018-07-13T13:15:54.698Z,29.30
2018-07-13T13:19:25.663Z,29.30
2018-07-13T13:21:53.236Z,29.30
2018-07-13T13:24:20.918Z,29.30
2018-07-13T13:26:48.431Z,29.20
2018-07-13T13:29:15.929Z,29.20
2018-07-13T13:31:43.610Z,29.20
2018-07-13T13:34:11.091Z,29.10
2018-07-13T13:36:38.614Z,29.10
2018-07-13T13:39:06.221Z,29.00
2018-07-13T13:41:33.750Z,29.00
2018-07-13T13:44:01.509Z,29.00
2018-07-13T13:46:29.046Z,28.70
2018-07-13T13:48:56.827Z,28.60
2018-07-13T13:53:52.056Z,28.70
2018-07-13T13:56:19.700Z,28.80
2018-07-13T13:58:47.240Z,28.80
2018-07-13T14:01:14.798Z,28.80
2018-07-13T14:03:42.693Z,28.80
2018-07-13T14:06:10.312Z,28.80
2018-07-13T14:08:38.724Z,28.70
2018-07-13T14:11:06.220Z,28.70
2018-07-13T14:13:33.737Z,28.60
2018-07-13T14:18:29.041Z,28.70
2018-07-13T14:20:56.573Z,28.70
2018-07-13T14:23:24.061Z,28.50
2018-07-13T14:25:51.694Z,28.50
2018-07-13T14:28:19.440Z,28.50
2018-07-13T14:30:46.961Z,28.50
2018-07-13T14:33:14.704Z,28.50
2018-07-13T14:35:42.214Z,28.60
2018-07-13T14:38:09.732Z,28.60
2018-07-13T14:40:37.269Z,28.50
2018-07-13T14:43:04.833Z,28.40
2018-07-13T14:45:32.354Z,28.50
2018-07-13T14:48:00.042Z,28.60
2018-07-13T14:50:27.575Z,28.60
2018-07-13T14:52:55.091Z,28.60
2018-07-13T14:55:22.790Z,28.70
2018-07-13T14:57:50.312Z,28.60
2018-07-13T15:00:17.930Z,28.60
2018-07-13T15:02:45.493Z,28.50
2018-07-13T15:05:13.064Z,28.40
2018-07-13T15:07:40.560Z,28.50
2018-07-13T15:10:08.142Z,28.50
2018-07-13T15:12:35.604Z,28.50
2018-07-13T15:15:03.205Z,28.40
2018-07-13T15:17:30.771Z,28.30
2018-07-13T15:19:58.216Z,28.30
2018-07-13T15:22:25.744Z,28.30
2018-07-13T15:24:53.433Z,28.30
2018-07-13T15:27:20.949Z,28.30
2018-07-13T15:29:48.467Z,28.30
2018-07-13T15:32:16.066Z,28.40
2018-07-13T15:34:43.576Z,28.60
2018-07-13T15:39:38.753Z,28.50
2018-07-13T15:42:06.291Z,28.50
2018-07-13T15:44:34.401Z,28.40
2018-07-13T15:47:02.176Z,28.30
2018-07-13T15:49:29.760Z,28.20
2018-07-13T15:51:57.437Z,28.20
2018-07-13T15:54:24.964Z,28.10
2018-07-13T15:56:52.455Z,28.20
2018-07-13T15:59:19.996Z,28.20
2018-07-13T16:04:15.029Z,28.20
2018-07-13T16:06:42.516Z,28.20
2018-07-13T16:09:10.093Z,28.20
2018-07-13T16:11:37.640Z,28.20
2018-07-13T16:14:05.225Z,28.10
2018-07-13T16:16:32.746Z,28.10
2018-07-13T16:19:00.269Z,27.90
2018-07-13T16:21:27.755Z,27.90
2018-07-13T16:23:55.297Z,28.10
2018-07-13T16:26:22.762Z,28.20
2018-07-13T16:28:50.457Z,28.20
2018-07-13T16:31:17.956Z,28.10
2018-07-13T16:33:45.465Z,28.00
2018-07-13T16:36:12.972Z,28.00
2018-07-13T16:38:40.482Z,28.00
2018-07-13T16:41:08.160Z,28.10
2018-07-13T16:43:35.665Z,28.10
2018-07-13T16:46:03.236Z,28.20
2018-07-13T16:48:31.166Z,28.20
2018-07-13T16:50:58.667Z,28.10
2018-07-13T16:53:26.181Z,28.10
2018-07-13T16:55:53.721Z,28.10
2018-07-13T16:58:21.199Z,28.10
2018-07-13T17:00:48.737Z,28.00
2018-07-13T17:03:16.547Z,27.90
2018-07-13T17:05:43.954Z,27.90
2018-07-13T17:08:11.464Z,28.00
2018-07-13T17:10:39.028Z,28.00
2018-07-13T17:13:06.512Z,27.90
2018-07-13T17:15:34.138Z,27.90
2018-07-13T17:18:01.688Z,27.90
2018-07-13T17:20:29.348Z,27.80
2018-07-13T17:22:56.740Z,27.90
2018-07-13T17:25:24.511Z,27.90
2018-07-13T17:27:52.003Z,27.90
2018-07-13T17:32:46.988Z,27.80
2018-07-13T17:35:14.913Z,27.70
2018-07-13T17:37:42.357Z,27.70
2018-07-13T17:40:10.076Z,27.70
2018-07-13T17:42:37.675Z,27.60
2018-07-13T17:45:05.700Z,27.50
2018-07-13T17:47:33.368Z,27.40
2018-07-13T17:50:00.874Z,27.40
2018-07-13T17:52:28.526Z,27.50
2018-07-13T17:54:56.077Z,27.50
2018-07-13T17:59:51.414Z,27.50
2018-07-13T18:02:19.130Z,27.50
2018-07-13T18:04:46.685Z,27.40
2018-07-13T18:07:14.236Z,27.30
2018-07-13T18:09:41.945Z,27.20
2018-07-13T18:12:10.872Z,27.30
2018-07-13T18:14:38.485Z,27.20
2018-07-13T18:17:06.221Z,27.10
2018-07-13T18:19:33.744Z,27.00
2018-07-13T18:22:01.261Z,26.90
2018-07-13T18:24:28.889Z,26.80
2018-07-13T18:26:56.512Z,26.70
2018-07-13T18:29:24.246Z,26.70
2018-07-13T18:31:51.769Z,26.70
2018-07-13T18:34:19.326Z,26.70
2018-07-13T18:36:46.820Z,26.60
2018-07-13T18:39:14.377Z,26.60
2018-07-13T18:46:43.928Z,26.30
2018-07-13T18:49:11.438Z,26.30
2018-07-13T18:51:38.977Z,26.20
2018-07-13T18:54:06.509Z,26.10
2018-07-13T18:56:34.000Z,26.00
2018-07-13T18:59:01.685Z,26.00
2018-07-13T19:01:29.152Z,26.00
2018-07-13T19:03:56.683Z,25.90
2018-07-13T19:06:24.224Z,25.70
2018-07-13T19:08:51.706Z,25.60
2018-07-13T19:12:22.373Z,25.40
2018-07-13T19:14:50.140Z,25.20
2018-07-13T19:19:45.588Z,24.80
2018-07-13T19:22:13.105Z,24.70
2018-07-13T19:24:40.632Z,24.60
2018-07-13T19:27:08.416Z,24.50
2018-07-13T19:29:35.895Z,24.40
2018-07-13T19:32:03.412Z,24.20
2018-07-13T19:34:30.997Z,24.10
2018-07-13T19:37:05.292Z,24.00
2018-07-13T19:39:32.812Z,23.90
2018-07-13T19:42:00.360Z,23.90
2018-07-13T19:44:27.881Z,23.70
2018-07-13T19:46:55.644Z,23.60
2018-07-13T19:49:23.177Z,23.50
2018-07-13T19:51:50.665Z,23.40
2018-07-13T19:54:19.539Z,23.40
2018-07-13T19:56:47.105Z,23.30
2018-07-13T19:59:14.593Z,23.20
2018-07-13T20:01:42.136Z,23.10
2018-07-13T20:04:09.713Z,23.00
2018-07-13T20:06:37.221Z,22.90
2018-07-13T20:09:05.744Z,22.90
2018-07-13T20:14:00.797Z,22.70
2018-07-13T20:16:28.324Z,22.60
2018-07-13T20:18:55.853Z,22.60
2018-07-13T20:21:23.408Z,22.60
2018-07-13T20:23:51.279Z,22.60
2018-07-13T20:26:19.205Z,22.50
2018-07-13T20:28:47.020Z,22.50
2018-07-13T20:31:15.330Z,22.50
2018-07-13T20:33:42.917Z,22.50
2018-07-13T20:36:10.601Z,22.40
2018-07-13T20:38:38.229Z,22.50
2018-07-13T20:41:05.798Z,22.50
2018-07-13T20:43:33.675Z,22.40
2018-07-13T20:46:01.198Z,22.40
2018-07-13T20:48:28.983Z,22.30
2018-07-13T20:50:56.570Z,22.20
2018-07-13T20:53:24.087Z,22.20
2018-07-13T20:55:51.601Z,22.10
2018-07-13T20:58:19.098Z,22.10
2018-07-13T21:00:46.624Z,22.00
2018-07-13T21:03:14.148Z,22.00
2018-07-13T21:05:41.829Z,21.90
2018-07-13T21:08:09.328Z,21.90
2018-07-13T21:10:37.097Z,21.80
2018-07-13T21:13:04.664Z,21.70
2018-07-13T21:15:32.236Z,21.50
2018-07-13T21:18:00.148Z,21.30
2018-07-13T21:20:27.750Z,21.20
2018-07-13T21:22:55.260Z,21.10
2018-07-13T21:25:22.784Z,21.00
2018-07-13T21:27:50.276Z,20.90
2018-07-13T21:32:45.800Z,20.80
2018-07-13T21:35:13.311Z,20.70
2018-07-13T21:37:41.311Z,20.70
2018-07-13T21:40:08.812Z,20.70
2018-07-13T21:42:36.704Z,20.60
2018-07-13T21:45:04.425Z,20.60
2018-07-13T21:47:32.008Z,20.60
2018-07-13T21:49:59.569Z,20.60
2018-07-13T21:52:27.220Z,20.50
2018-07-13T21:54:54.748Z,20.50
2018-07-13T21:57:22.420Z,20.50
2018-07-13T22:02:17.484Z,20.30
2018-07-13T22:04:45.052Z,20.20
2018-07-13T22:07:12.822Z,20.30
2018-07-13T22:09:40.321Z,20.20
2018-07-13T22:12:07.868Z,20.10
2018-07-13T22:14:35.457Z,20.00
2018-07-13T22:17:03.018Z,19.90
2018-07-13T22:19:30.498Z,19.90
2018-07-13T22:21:58.206Z,19.80
2018-07-13T22:24:25.780Z,19.70
2018-07-13T22:26:53.284Z,19.70
2018-07-13T22:29:20.820Z,19.60
2018-07-13T22:31:48.445Z,19.60
2018-07-13T22:34:15.973Z,19.50
2018-07-13T22:36:43.805Z,19.40
2018-07-13T22:39:11.268Z,19.30
2018-07-13T22:41:38.762Z,19.20
2018-07-13T22:44:06.656Z,19.20
2018-07-13T22:46:34.464Z,19.20
2018-07-13T22:49:01.949Z,19.10
2018-07-13T22:51:29.493Z,19.00
2018-07-13T22:53:57.023Z,18.90
2018-07-13T22:56:24.624Z,18.80
2018-07-13T22:58:52.466Z,18.70
2018-07-13T23:01:19.987Z,18.70
2018-07-13T23:03:47.885Z,18.70
2018-07-13T23:06:15.355Z,18.60
2018-07-13T23:08:42.873Z,18.60
2018-07-13T23:11:10.413Z,18.60
2018-07-13T23:13:37.900Z,18.50
2018-07-13T23:16:05.469Z,18.50
2018-07-13T23:18:32.968Z,18.60
2018-07-13T23:23:28.083Z,18.40
2018-07-13T23:25:55.793Z,18.40
2018-07-13T23:28:23.276Z,18.30
2018-07-13T23:30:50.837Z,18.20
2018-07-13T23:33:18.368Z,18.10
2018-07-13T23:35:45.864Z,18.10
2018-07-13T23:38:13.445Z,18.10
2018-07-13T23:40:40.964Z,18.00
2018-07-13T23:43:08.522Z,17.90
2018-07-13T23:45:36.078Z,17.90
2018-07-13T23:48:03.666Z,17.90
2018-07-13T23:50:31.188Z,17.90
2018-07-13T23:52:58.765Z,17.90
2018-07-13T23:55:26.308Z,17.90
2018-07-13T23:57:53.909Z,17.90
